Terminal Aerodrome Forecast
Issued by NWS

Home | Current Version | Previous Version | Text Only | Print | Product List | Glossary On
Versions: 1 2 3 4 5 6 7 8 9 10 11 12 13 14 15 16 17 18 19 20
916
FTUS45 KVEF 212320
TAFBIH
TAF
KBIH 212320Z 2200/2224 28015G25KT P6SM FEW090 SCT120
     FM220100 35015G25KT P6SM SCT090 BKN120
     FM220600 34007KT P6SM FEW120
     FM221800 VRB05KT P6SM FEW120=

USA.gov is the U.S. government's official web portal to all federal, state and local government web resources and services.